Terminal Aerodrome Forecast
Issued by NWS

Home | Current Version | Previous Version | Text Only | Print | Product List | Glossary On
Versions: 1 2 3 4 5 6 7 8 9 10 11 12 13 14 15 16 17 18 19 20 21 22 23 24 25 26 27 28
000
FTUS45 KGJT 222337
TAFMTJ
TAF
KMTJ 222337Z 2300/2324 10008KT P6SM VCTS BKN120CB
      TEMPO 2301/2303 VRB15G30KT TS BKN080CB
     FM230800 13004KT P6SM SCT200
     FM231800 30004KT P6SM SCT200=

USA.gov is the U.S. government's official web portal to all federal, state and local government web resources and services.